Warning: Javascript must be enabled to use all the features on this page!


Page Loading - Please Wait...

Click to hideNews Bulletins

Peak Streamflow for the Nation

USGS 09359500 ANIMAS RIVER AT TALL TIMBER RESORT ABOVE TACOMA,CO

La Plata County, Colorado
Hydrologic Unit Code 14080104
Latitude  37°35'50.70", Longitude 107°46'37.08" NAD83
Drainage area 338  square miles
Gage datum 7,682 feet above NAVD88
Output formats
Table
Graph
Tab-separated file
peakfq (watstore) format
Reselect output format
Water
Year
Date Gage
Height
(feet)
Stream-
flow
(cfs)
1946 1946-06-08 6.73 5,060
1947 1947-06-09 7.12 5,950
1948 1948-05-19 7.69 6,920
1949 1949-06-18 8.86 9,500
1950 1950-05-30 5.80 3,120
1951 1951-05-27 6.65 4,760
1952 1952-06-10 8.20 8,200
1953 1953-06-12 7.42 6,300
1954 1954-05-21 5.63 2,800
1955 1955-06-08 6.96 5,280
1956 1956-05-31 6.50 4,380
2007 2006-10-06 9.06 7,460
2008 2008-05-20 7.00 2,540
2009 2009-05-11 7.20 2,790
2010 2010-05-28 7.302 2,890
2011 2011-06-06 7.40 4,820
2012 2012-05-22 5.48 1,900
2013 2013-05-17 6.07 2,690
2014 2014-06-01 7.35 4,730
2015 2015-06-10 8.03 5,990
2016 2016-06-05 7.522 5,040
2017 2017-06-04 6.37 3,600
2018 2018-05-10 5.33 2,150
2019 2019-06-15 7.31 5,270
2020 2020-06-06 6.74 4,210
2021 2021-06-04 6.02 3,070
?
  Peak Gage-Height Qualification Codes.